sensor_id;sensor_type;location;lat;lon;timestamp;P1;durP1;ratioP1;P2;durP2;ratioP2
34832;SDS011;55941;50.800;4.342;2023-06-04T00:01:11;11.07;;;1.00;;
34832;SDS011;55941;50.800;4.342;2023-06-04T00:03:38;3.38;;;1.17;;
34832;SDS011;55941;50.800;4.342;2023-06-04T00:06:03;4.13;;;1.20;;
34832;SDS011;55941;50.800;4.342;2023-06-04T00:08:29;3.38;;;1.13;;
34832;SDS011;55941;50.800;4.342;2023-06-04T00:10:54;5.88;;;1.05;;
34832;SDS011;55941;50.800;4.342;2023-06-04T00:13:20;7.15;;;1.13;;
34832;SDS011;55941;50.800;4.342;2023-06-04T00:15:46;8.40;;;1.73;;
34832;SDS011;55941;50.800;4.342;2023-06-04T00:18:13;1.75;;;1.05;;
34832;SDS011;55941;50.800;4.342;2023-06-04T00:20:38;8.57;;;1.25;;
34832;SDS011;55941;50.800;4.342;2023-06-04T00:23:04;2.90;;;1.30;;
34832;SDS011;55941;50.800;4.342;2023-06-04T00:25:30;4.13;;;1.48;;
34832;SDS011;55941;50.800;4.342;2023-06-04T00:27:56;6.75;;;1.73;;
34832;SDS011;55941;50.800;4.342;2023-06-04T00:30:22;3.20;;;1.20;;
34832;SDS011;55941;50.800;4.342;2023-06-04T00:32:47;1.95;;;1.23;;
34832;SDS011;55941;50.800;4.342;2023-06-04T00:35:14;5.53;;;1.20;;
34832;SDS011;55941;50.800;4.342;2023-06-04T00:37:40;3.33;;;1.00;;
34832;SDS011;55941;50.800;4.342;2023-06-04T00:40:06;3.63;;;1.10;;
34832;SDS011;55941;50.800;4.342;2023-06-04T00:42:32;4.50;;;1.45;;
34832;SDS011;55941;50.800;4.342;2023-06-04T00:44:58;1.58;;;0.95;;
34832;SDS011;55941;50.800;4.342;2023-06-04T00:47:24;1.92;;;1.02;;
34832;SDS011;55941;50.800;4.342;2023-06-04T00:49:50;3.90;;;1.35;;
34832;SDS011;55941;50.800;4.342;2023-06-04T00:52:18;3.90;;;1.15;;
34832;SDS011;55941;50.800;4.342;2023-06-04T00:54:44;6.28;;;1.25;;
34832;SDS011;55941;50.800;4.342;2023-06-04T00:57:10;3.17;;;1.17;;
34832;SDS011;55941;50.800;4.342;2023-06-04T00:59:36;9.77;;;1.25;;
34832;SDS011;55941;50.800;4.342;2023-06-04T01:07:05;7.13;;;1.10;;
34832;SDS011;55941;50.800;4.342;2023-06-04T01:09:36;3.78;;;1.38;;
34832;SDS011;55941;50.800;4.342;2023-06-04T01:12:06;4.65;;;1.10;;
34832;SDS011;55941;50.800;4.342;2023-06-04T01:14:32;2.25;;;1.02;;
34832;SDS011;55941;50.800;4.342;2023-06-04T01:25:18;2.75;;;1.40;;
34832;SDS011;55941;50.800;4.342;2023-06-04T01:27:55;9.10;;;1.50;;
34832;SDS011;55941;50.800;4.342;2023-06-04T01:30:23;8.23;;;1.20;;
34832;SDS011;55941;50.800;4.342;2023-06-04T01:32:49;10.05;;;1.92;;
34832;SDS011;55941;50.800;4.342;2023-06-04T01:35:15;4.72;;;1.45;;
34832;SDS011;55941;50.800;4.342;2023-06-04T01:37:40;3.17;;;1.30;;
34832;SDS011;55941;50.800;4.342;2023-06-04T01:40:06;5.53;;;1.42;;
34832;SDS011;55941;50.800;4.342;2023-06-04T01:42:33;5.57;;;1.30;;
34832;SDS011;55941;50.800;4.342;2023-06-04T01:45:00;14.20;;;1.90;;
34832;SDS011;55941;50.800;4.342;2023-06-04T01:47:26;6.32;;;1.63;;
34832;SDS011;55941;50.800;4.342;2023-06-04T01:49:52;9.13;;;1.77;;
34832;SDS011;55941;50.800;4.342;2023-06-04T01:52:17;4.55;;;1.38;;
34832;SDS011;55941;50.800;4.342;2023-06-04T01:54:46;7.35;;;1.80;;
34832;SDS011;55941;50.800;4.342;2023-06-04T01:57:14;4.47;;;2.00;;
34832;SDS011;55941;50.800;4.342;2023-06-04T01:59:40;2.30;;;1.25;;
34832;SDS011;55941;50.800;4.342;2023-06-04T02:02:07;4.82;;;1.88;;
34832;SDS011;55941;50.800;4.342;2023-06-04T02:04:32;11.00;;;1.60;;
34832;SDS011;55941;50.800;4.342;2023-06-04T02:07:01;5.95;;;1.75;;
34832;SDS011;55941;50.800;4.342;2023-06-04T02:09:27;6.10;;;1.83;;
34832;SDS011;55941;50.800;4.342;2023-06-04T02:11:52;2.83;;;1.83;;
34832;SDS011;55941;50.800;4.342;2023-06-04T02:14:18;6.25;;;1.50;;
34832;SDS011;55941;50.800;4.342;2023-06-04T02:16:44;11.27;;;1.80;;
34832;SDS011;55941;50.800;4.342;2023-06-04T02:19:09;5.82;;;1.77;;
34832;SDS011;55941;50.800;4.342;2023-06-04T02:21:38;3.80;;;1.75;;
34832;SDS011;55941;50.800;4.342;2023-06-04T02:24:03;5.68;;;1.98;;
34832;SDS011;55941;50.800;4.342;2023-06-04T02:26:30;5.18;;;1.80;;
34832;SDS011;55941;50.800;4.342;2023-06-04T02:28:56;11.82;;;1.95;;
34832;SDS011;55941;50.800;4.342;2023-06-04T02:31:21;4.55;;;2.00;;
34832;SDS011;55941;50.800;4.342;2023-06-04T02:33:47;14.05;;;1.67;;
34832;SDS011;55941;50.800;4.342;2023-06-04T02:36:12;8.38;;;1.88;;
34832;SDS011;55941;50.800;4.342;2023-06-04T02:38:38;6.72;;;1.90;;
34832;SDS011;55941;50.800;4.342;2023-06-04T02:41:04;7.85;;;2.25;;
34832;SDS011;55941;50.800;4.342;2023-06-04T02:43:30;8.32;;;1.77;;
34832;SDS011;55941;50.800;4.342;2023-06-04T02:45:55;7.63;;;2.35;;
34832;SDS011;55941;50.800;4.342;2023-06-04T02:48:21;5.30;;;2.10;;
34832;SDS011;55941;50.800;4.342;2023-06-04T02:50:46;5.95;;;2.10;;
34832;SDS011;55941;50.800;4.342;2023-06-04T02:53:12;8.85;;;1.95;;
34832;SDS011;55941;50.800;4.342;2023-06-04T02:55:39;7.68;;;2.08;;
34832;SDS011;55941;50.800;4.342;2023-06-04T02:58:06;4.53;;;1.92;;
34832;SDS011;55941;50.800;4.342;2023-06-04T03:00:34;4.03;;;1.85;;
34832;SDS011;55941;50.800;4.342;2023-06-04T03:03:00;8.07;;;2.17;;
34832;SDS011;55941;50.800;4.342;2023-06-04T03:05:27;8.55;;;2.15;;
34832;SDS011;55941;50.800;4.342;2023-06-04T03:07:53;7.32;;;2.10;;
34832;SDS011;55941;50.800;4.342;2023-06-04T03:10:21;3.88;;;1.83;;
34832;SDS011;55941;50.800;4.342;2023-06-04T03:12:46;4.95;;;2.15;;
34832;SDS011;55941;50.800;4.342;2023-06-04T03:15:12;7.63;;;2.28;;
34832;SDS011;55941;50.800;4.342;2023-06-04T03:17:38;6.00;;;2.40;;
34832;SDS011;55941;50.800;4.342;2023-06-04T03:20:03;6.47;;;2.03;;
34832;SDS011;55941;50.800;4.342;2023-06-04T03:22:30;4.32;;;2.00;;
34832;SDS011;55941;50.800;4.342;2023-06-04T03:24:56;7.65;;;2.13;;
34832;SDS011;55941;50.800;4.342;2023-06-04T03:27:21;10.10;;;2.22;;
34832;SDS011;55941;50.800;4.342;2023-06-04T03:29:47;10.82;;;2.25;;
34832;SDS011;55941;50.800;4.342;2023-06-04T03:32:13;5.57;;;2.20;;
34832;SDS011;55941;50.800;4.342;2023-06-04T03:34:40;5.38;;;2.33;;
34832;SDS011;55941;50.800;4.342;2023-06-04T03:37:06;12.48;;;2.15;;
34832;SDS011;55941;50.800;4.342;2023-06-04T03:39:32;8.55;;;2.20;;
34832;SDS011;55941;50.800;4.342;2023-06-04T03:41:57;4.72;;;2.17;;
34832;SDS011;55941;50.800;4.342;2023-06-04T03:44:23;9.50;;;1.92;;
34832;SDS011;55941;50.800;4.342;2023-06-04T03:46:49;10.43;;;2.05;;
34832;SDS011;55941;50.800;4.342;2023-06-04T03:49:15;8.30;;;2.45;;
34832;SDS011;55941;50.800;4.342;2023-06-04T03:51:42;4.60;;;1.92;;
34832;SDS011;55941;50.800;4.342;2023-06-04T03:54:08;5.90;;;2.40;;
34832;SDS011;55941;50.800;4.342;2023-06-04T03:56:34;6.47;;;2.28;;
34832;SDS011;55941;50.800;4.342;2023-06-04T03:59:00;7.25;;;2.10;;
34832;SDS011;55941;50.800;4.342;2023-06-04T04:01:25;4.68;;;2.17;;
34832;SDS011;55941;50.800;4.342;2023-06-04T04:03:51;12.23;;;2.33;;
34832;SDS011;55941;50.800;4.342;2023-06-04T04:06:18;7.32;;;2.38;;
34832;SDS011;55941;50.800;4.342;2023-06-04T04:08:44;6.00;;;2.53;;
34832;SDS011;55941;50.800;4.342;2023-06-04T04:11:10;9.05;;;2.30;;
34832;SDS011;55941;50.800;4.342;2023-06-04T04:13:36;6.70;;;2.58;;
34832;SDS011;55941;50.800;4.342;2023-06-04T04:16:02;8.60;;;2.80;;
34832;SDS011;55941;50.800;4.342;2023-06-04T04:18:28;3.80;;;2.10;;
34832;SDS011;55941;50.800;4.342;2023-06-04T04:20:57;8.27;;;2.47;;
34832;SDS011;55941;50.800;4.342;2023-06-04T04:23:22;4.57;;;2.05;;
34832;SDS011;55941;50.800;4.342;2023-06-04T04:25:48;6.43;;;2.45;;
34832;SDS011;55941;50.800;4.342;2023-06-04T04:28:14;7.90;;;2.47;;
34832;SDS011;55941;50.800;4.342;2023-06-04T04:30:42;7.10;;;2.22;;
34832;SDS011;55941;50.800;4.342;2023-06-04T04:33:09;6.10;;;2.28;;
34832;SDS011;55941;50.800;4.342;2023-06-04T04:35:35;9.23;;;2.22;;
34832;SDS011;55941;50.800;4.342;2023-06-04T04:38:02;11.50;;;2.15;;
34832;SDS011;55941;50.800;4.342;2023-06-04T04:40:30;8.57;;;2.55;;
34832;SDS011;55941;50.800;4.342;2023-06-04T04:42:57;3.17;;;2.00;;
34832;SDS011;55941;50.800;4.342;2023-06-04T04:45:23;14.50;;;2.55;;
34832;SDS011;55941;50.800;4.342;2023-06-04T04:47:49;6.38;;;2.47;;
34832;SDS011;55941;50.800;4.342;2023-06-04T04:50:16;11.85;;;2.17;;
34832;SDS011;55941;50.800;4.342;2023-06-04T04:52:42;4.97;;;2.45;;
34832;SDS011;55941;50.800;4.342;2023-06-04T04:55:08;7.35;;;2.30;;
34832;SDS011;55941;50.800;4.342;2023-06-04T04:57:35;6.32;;;2.85;;
34832;SDS011;55941;50.800;4.342;2023-06-04T05:00:01;4.97;;;2.10;;
34832;SDS011;55941;50.800;4.342;2023-06-04T05:02:30;4.43;;;2.00;;
34832;SDS011;55941;50.800;4.342;2023-06-04T05:04:56;4.90;;;2.10;;
34832;SDS011;55941;50.800;4.342;2023-06-04T05:07:21;7.10;;;2.10;;
34832;SDS011;55941;50.800;4.342;2023-06-04T05:09:48;11.77;;;2.25;;
34832;SDS011;55941;50.800;4.342;2023-06-04T05:12:15;6.15;;;2.60;;
34832;SDS011;55941;50.800;4.342;2023-06-04T05:14:41;11.88;;;2.13;;
34832;SDS011;55941;50.800;4.342;2023-06-04T05:17:07;12.23;;;2.50;;
34832;SDS011;55941;50.800;4.342;2023-06-04T05:19:35;15.10;;;3.08;;
34832;SDS011;55941;50.800;4.342;2023-06-04T05:22:02;7.72;;;2.60;;
34832;SDS011;55941;50.800;4.342;2023-06-04T05:24:28;7.30;;;2.75;;
34832;SDS011;55941;50.800;4.342;2023-06-04T05:26:54;8.98;;;2.50;;
34832;SDS011;55941;50.800;4.342;2023-06-04T05:29:21;7.53;;;2.50;;
34832;SDS011;55941;50.800;4.342;2023-06-04T05:31:47;6.78;;;2.35;;
34832;SDS011;55941;50.800;4.342;2023-06-04T05:34:13;6.65;;;2.70;;
34832;SDS011;55941;50.800;4.342;2023-06-04T05:36:41;6.63;;;2.40;;
34832;SDS011;55941;50.800;4.342;2023-06-04T05:39:09;6.85;;;3.25;;
34832;SDS011;55941;50.800;4.342;2023-06-04T05:41:35;8.77;;;2.67;;
34832;SDS011;55941;50.800;4.342;2023-06-04T05:44:01;13.57;;;2.65;;
34832;SDS011;55941;50.800;4.342;2023-06-04T05:46:28;6.65;;;2.92;;
34832;SDS011;55941;50.800;4.342;2023-06-04T05:48:53;7.72;;;2.70;;
34832;SDS011;55941;50.800;4.342;2023-06-04T05:51:20;11.90;;;2.50;;
34832;SDS011;55941;50.800;4.342;2023-06-04T05:53:46;10.50;;;2.47;;
34832;SDS011;55941;50.800;4.342;2023-06-04T05:56:12;8.52;;;2.90;;
34832;SDS011;55941;50.800;4.342;2023-06-04T05:58:38;5.95;;;2.58;;
34832;SDS011;55941;50.800;4.342;2023-06-04T06:01:04;5.20;;;2.17;;
34832;SDS011;55941;50.800;4.342;2023-06-04T06:03:30;7.65;;;2.83;;
34832;SDS011;55941;50.800;4.342;2023-06-04T06:05:56;9.25;;;2.40;;
34832;SDS011;55941;50.800;4.342;2023-06-04T06:08:24;9.25;;;2.25;;
34832;SDS011;55941;50.800;4.342;2023-06-04T06:10:50;5.18;;;2.05;;
34832;SDS011;55941;50.800;4.342;2023-06-04T06:13:16;4.65;;;2.20;;
34832;SDS011;55941;50.800;4.342;2023-06-04T06:15:42;4.13;;;2.20;;
34832;SDS011;55941;50.800;4.342;2023-06-04T06:18:07;6.43;;;2.30;;
34832;SDS011;55941;50.800;4.342;2023-06-04T06:20:34;9.82;;;2.20;;
34832;SDS011;55941;50.800;4.342;2023-06-04T06:23:09;4.78;;;2.20;;
34832;SDS011;55941;50.800;4.342;2023-06-04T06:25:34;5.25;;;2.28;;
34832;SDS011;55941;50.800;4.342;2023-06-04T06:28:00;4.80;;;2.42;;
34832;SDS011;55941;50.800;4.342;2023-06-04T06:30:26;6.60;;;2.30;;
34832;SDS011;55941;50.800;4.342;2023-06-04T06:32:51;5.03;;;2.13;;
34832;SDS011;55941;50.800;4.342;2023-06-04T06:35:18;4.40;;;2.00;;
34832;SDS011;55941;50.800;4.342;2023-06-04T06:37:44;5.18;;;2.13;;
34832;SDS011;55941;50.800;4.342;2023-06-04T06:40:10;19.17;;;2.70;;
34832;SDS011;55941;50.800;4.342;2023-06-04T06:42:35;6.57;;;2.28;;
34832;SDS011;55941;50.800;4.342;2023-06-04T06:45:01;11.13;;;2.47;;
34832;SDS011;55941;50.800;4.342;2023-06-04T06:47:27;10.07;;;2.22;;
34832;SDS011;55941;50.800;4.342;2023-06-04T06:49:53;3.45;;;2.17;;
34832;SDS011;55941;50.800;4.342;2023-06-04T06:52:19;8.27;;;2.33;;
34832;SDS011;55941;50.800;4.342;2023-06-04T06:54:46;5.53;;;1.95;;
34832;SDS011;55941;50.800;4.342;2023-06-04T06:57:12;10.02;;;2.95;;
34832;SDS011;55941;50.800;4.342;2023-06-04T06:59:38;14.00;;;2.72;;
34832;SDS011;55941;50.800;4.342;2023-06-04T07:02:04;6.10;;;1.88;;
34832;SDS011;55941;50.800;4.342;2023-06-04T07:04:30;9.95;;;2.35;;
34832;SDS011;55941;50.800;4.342;2023-06-04T07:06:56;9.40;;;2.40;;
34832;SDS011;55941;50.800;4.342;2023-06-04T07:09:22;8.55;;;2.40;;
34832;SDS011;55941;50.800;4.342;2023-06-04T07:11:47;4.95;;;1.80;;
34832;SDS011;55941;50.800;4.342;2023-06-04T07:14:13;2.88;;;1.90;;
34832;SDS011;55941;50.800;4.342;2023-06-04T07:16:39;5.43;;;2.28;;
34832;SDS011;55941;50.800;4.342;2023-06-04T07:19:05;6.93;;;1.85;;
34832;SDS011;55941;50.800;4.342;2023-06-04T07:21:31;6.90;;;2.42;;
34832;SDS011;55941;50.800;4.342;2023-06-04T07:23:56;7.03;;;2.05;;
34832;SDS011;55941;50.800;4.342;2023-06-04T07:26:22;2.08;;;1.63;;
34832;SDS011;55941;50.800;4.342;2023-06-04T07:28:50;6.50;;;1.95;;
34832;SDS011;55941;50.800;4.342;2023-06-04T07:31:16;5.35;;;1.80;;
34832;SDS011;55941;50.800;4.342;2023-06-04T07:33:42;5.57;;;2.03;;
34832;SDS011;55941;50.800;4.342;2023-06-04T07:36:14;3.58;;;1.90;;
34832;SDS011;55941;50.800;4.342;2023-06-04T07:38:41;9.50;;;2.45;;
34832;SDS011;55941;50.800;4.342;2023-06-04T07:41:07;3.05;;;1.70;;
34832;SDS011;55941;50.800;4.342;2023-06-04T07:43:33;6.78;;;1.55;;
34832;SDS011;55941;50.800;4.342;2023-06-04T07:46:00;3.90;;;1.70;;
34832;SDS011;55941;50.800;4.342;2023-06-04T07:48:28;3.63;;;1.75;;
34832;SDS011;55941;50.800;4.342;2023-06-04T07:50:59;10.32;;;1.85;;
34832;SDS011;55941;50.800;4.342;2023-06-04T07:53:25;5.63;;;1.60;;
34832;SDS011;55941;50.800;4.342;2023-06-04T07:55:52;5.18;;;1.73;;
34832;SDS011;55941;50.800;4.342;2023-06-04T07:58:18;4.55;;;1.50;;
34832;SDS011;55941;50.800;4.342;2023-06-04T08:00:45;8.57;;;1.73;;
34832;SDS011;55941;50.800;4.342;2023-06-04T08:03:10;6.82;;;1.50;;
34832;SDS011;55941;50.800;4.342;2023-06-04T08:05:36;4.25;;;1.92;;
34832;SDS011;55941;50.800;4.342;2023-06-04T08:08:02;7.47;;;1.40;;
34832;SDS011;55941;50.800;4.342;2023-06-04T08:10:31;3.75;;;1.50;;
34832;SDS011;55941;50.800;4.342;2023-06-04T08:12:56;3.30;;;1.80;;
34832;SDS011;55941;50.800;4.342;2023-06-04T08:15:22;5.93;;;1.60;;
34832;SDS011;55941;50.800;4.342;2023-06-04T08:17:48;9.43;;;1.90;;
34832;SDS011;55941;50.800;4.342;2023-06-04T08:20:15;6.25;;;1.30;;
34832;SDS011;55941;50.800;4.342;2023-06-04T08:22:41;15.20;;;1.83;;
34832;SDS011;55941;50.800;4.342;2023-06-04T08:25:07;12.88;;;1.60;;
34832;SDS011;55941;50.800;4.342;2023-06-04T08:27:34;6.03;;;1.85;;
34832;SDS011;55941;50.800;4.342;2023-06-04T08:30:00;4.13;;;1.42;;
34832;SDS011;55941;50.800;4.342;2023-06-04T08:32:27;11.35;;;2.00;;
34832;SDS011;55941;50.800;4.342;2023-06-04T08:34:54;9.35;;;1.65;;
34832;SDS011;55941;50.800;4.342;2023-06-04T08:37:19;3.58;;;1.50;;
34832;SDS011;55941;50.800;4.342;2023-06-04T08:39:45;8.60;;;1.75;;
34832;SDS011;55941;50.800;4.342;2023-06-04T08:42:15;4.40;;;1.52;;
34832;SDS011;55941;50.800;4.342;2023-06-04T08:44:50;4.57;;;1.52;;
34832;SDS011;55941;50.800;4.342;2023-06-04T08:47:19;5.93;;;1.08;;
34832;SDS011;55941;50.800;4.342;2023-06-04T08:49:48;10.90;;;1.70;;
34832;SDS011;55941;50.800;4.342;2023-06-04T08:52:15;3.47;;;1.40;;
34832;SDS011;55941;50.800;4.342;2023-06-04T08:54:41;10.05;;;1.30;;
34832;SDS011;55941;50.800;4.342;2023-06-04T08:57:08;3.05;;;1.30;;
34832;SDS011;55941;50.800;4.342;2023-06-04T08:59:35;5.45;;;1.25;;
34832;SDS011;55941;50.800;4.342;2023-06-04T09:02:01;9.77;;;1.63;;
34832;SDS011;55941;50.800;4.342;2023-06-04T09:04:29;6.93;;;1.25;;
34832;SDS011;55941;50.800;4.342;2023-06-04T09:06:56;7.43;;;1.35;;
34832;SDS011;55941;50.800;4.342;2023-06-04T09:09:27;13.38;;;1.90;;
34832;SDS011;55941;50.800;4.342;2023-06-04T09:11:55;2.25;;;1.23;;
34832;SDS011;55941;50.800;4.342;2023-06-04T09:14:22;2.67;;;1.10;;
34832;SDS011;55941;50.800;4.342;2023-06-04T09:16:51;10.60;;;1.50;;
34832;SDS011;55941;50.800;4.342;2023-06-04T09:19:19;5.50;;;1.10;;
34832;SDS011;55941;50.800;4.342;2023-06-04T09:21:52;4.57;;;1.23;;
34832;SDS011;55941;50.800;4.342;2023-06-04T09:24:20;5.10;;;1.42;;
34832;SDS011;55941;50.800;4.342;2023-06-04T09:26:46;10.45;;;1.85;;
34832;SDS011;55941;50.800;4.342;2023-06-04T09:29:12;6.28;;;1.40;;
34832;SDS011;55941;50.800;4.342;2023-06-04T09:31:39;6.38;;;1.40;;
34832;SDS011;55941;50.800;4.342;2023-06-04T09:34:05;10.40;;;1.60;;
34832;SDS011;55941;50.800;4.342;2023-06-04T09:36:31;5.93;;;1.75;;
34832;SDS011;55941;50.800;4.342;2023-06-04T09:39:04;2.17;;;1.02;;
34832;SDS011;55941;50.800;4.342;2023-06-04T09:41:43;5.30;;;1.30;;
34832;SDS011;55941;50.800;4.342;2023-06-04T09:44:09;6.40;;;1.77;;
34832;SDS011;55941;50.800;4.342;2023-06-04T09:46:36;3.67;;;1.25;;
34832;SDS011;55941;50.800;4.342;2023-06-04T09:49:03;7.50;;;1.52;;
34832;SDS011;55941;50.800;4.342;2023-06-04T09:51:30;4.88;;;1.60;;
34832;SDS011;55941;50.800;4.342;2023-06-04T09:53:58;9.68;;;1.67;;
34832;SDS011;55941;50.800;4.342;2023-06-04T09:56:25;7.40;;;1.48;;
34832;SDS011;55941;50.800;4.342;2023-06-04T09:58:55;2.72;;;1.40;;
34832;SDS011;55941;50.800;4.342;2023-06-04T10:01:23;9.50;;;1.83;;
34832;SDS011;55941;50.800;4.342;2023-06-04T10:03:51;9.35;;;1.33;;
34832;SDS011;55941;50.800;4.342;2023-06-04T10:06:21;9.98;;;1.52;;
34832;SDS011;55941;50.800;4.342;2023-06-04T10:08:48;7.07;;;1.60;;
34832;SDS011;55941;50.800;4.342;2023-06-04T10:11:16;9.57;;;1.63;;
34832;SDS011;55941;50.800;4.342;2023-06-04T10:14:00;6.90;;;1.20;;
34832;SDS011;55941;50.800;4.342;2023-06-04T10:16:31;7.00;;;1.30;;
34832;SDS011;55941;50.800;4.342;2023-06-04T10:18:57;4.05;;;1.20;;
34832;SDS011;55941;50.800;4.342;2023-06-04T10:21:25;9.48;;;1.25;;
34832;SDS011;55941;50.800;4.342;2023-06-04T10:23:51;5.43;;;1.50;;
34832;SDS011;55941;50.800;4.342;2023-06-04T10:26:17;4.55;;;1.52;;
34832;SDS011;55941;50.800;4.342;2023-06-04T10:28:43;6.03;;;1.63;;
34832;SDS011;55941;50.800;4.342;2023-06-04T10:31:09;8.20;;;1.40;;
34832;SDS011;55941;50.800;4.342;2023-06-04T10:33:36;6.72;;;1.35;;
34832;SDS011;55941;50.800;4.342;2023-06-04T10:36:23;6.00;;;1.70;;
34832;SDS011;55941;50.800;4.342;2023-06-04T10:38:49;4.75;;;1.55;;
34832;SDS011;55941;50.800;4.342;2023-06-04T10:41:17;5.63;;;1.70;;
34832;SDS011;55941;50.800;4.342;2023-06-04T10:43:47;10.27;;;1.40;;
34832;SDS011;55941;50.800;4.342;2023-06-04T10:46:17;5.38;;;1.88;;
34832;SDS011;55941;50.800;4.342;2023-06-04T10:48:45;7.53;;;1.40;;
34832;SDS011;55941;50.800;4.342;2023-06-04T10:51:15;7.82;;;1.50;;
34832;SDS011;55941;50.800;4.342;2023-06-04T10:53:41;5.80;;;2.15;;
34832;SDS011;55941;50.800;4.342;2023-06-04T10:56:07;7.95;;;1.40;;
34832;SDS011;55941;50.800;4.342;2023-06-04T10:58:33;6.68;;;1.35;;
34832;SDS011;55941;50.800;4.342;2023-06-04T11:01:00;3.45;;;1.58;;
34832;SDS011;55941;50.800;4.342;2023-06-04T11:03:36;2.38;;;1.33;;
34832;SDS011;55941;50.800;4.342;2023-06-04T11:06:02;3.85;;;1.45;;
34832;SDS011;55941;50.800;4.342;2023-06-04T11:08:40;6.53;;;1.45;;
34832;SDS011;55941;50.800;4.342;2023-06-04T11:11:10;7.55;;;1.50;;
34832;SDS011;55941;50.800;4.342;2023-06-04T11:13:37;3.47;;;1.77;;
34832;SDS011;55941;50.800;4.342;2023-06-04T11:16:03;7.55;;;1.40;;
34832;SDS011;55941;50.800;4.342;2023-06-04T11:18:40;5.30;;;1.45;;
34832;SDS011;55941;50.800;4.342;2023-06-04T11:21:06;5.03;;;1.35;;
34832;SDS011;55941;50.800;4.342;2023-06-04T11:23:33;8.55;;;1.88;;
34832;SDS011;55941;50.800;4.342;2023-06-04T11:25:58;2.08;;;1.27;;
34832;SDS011;55941;50.800;4.342;2023-06-04T11:28:24;2.30;;;1.10;;
34832;SDS011;55941;50.800;4.342;2023-06-04T11:31:00;3.78;;;1.40;;
34832;SDS011;55941;50.800;4.342;2023-06-04T11:33:45;5.15;;;1.40;;
34832;SDS011;55941;50.800;4.342;2023-06-04T11:36:25;7.22;;;1.55;;
34832;SDS011;55941;50.800;4.342;2023-06-04T11:38:56;6.07;;;1.65;;
34832;SDS011;55941;50.800;4.342;2023-06-04T11:41:35;4.28;;;1.20;;
34832;SDS011;55941;50.800;4.342;2023-06-04T11:44:02;5.20;;;1.27;;
34832;SDS011;55941;50.800;4.342;2023-06-04T11:46:30;8.80;;;1.40;;
34832;SDS011;55941;50.800;4.342;2023-06-04T11:49:17;8.77;;;1.23;;
34832;SDS011;55941;50.800;4.342;2023-06-04T11:51:51;3.47;;;1.33;;
34832;SDS011;55941;50.800;4.342;2023-06-04T11:54:18;12.05;;;1.52;;
34832;SDS011;55941;50.800;4.342;2023-06-04T11:56:45;6.55;;;1.30;;
34832;SDS011;55941;50.800;4.342;2023-06-04T11:59:18;8.60;;;1.70;;
34832;SDS011;55941;50.800;4.342;2023-06-04T12:01:45;3.80;;;1.23;;
34832;SDS011;55941;50.800;4.342;2023-06-04T12:04:20;8.13;;;1.50;;
34832;SDS011;55941;50.800;4.342;2023-06-04T12:06:53;5.68;;;1.20;;
34832;SDS011;55941;50.800;4.342;2023-06-04T12:09:31;5.80;;;1.08;;
34832;SDS011;55941;50.800;4.342;2023-06-04T12:12:02;3.22;;;1.17;;
34832;SDS011;55941;50.800;4.342;2023-06-04T12:14:32;3.88;;;1.08;;
34832;SDS011;55941;50.800;4.342;2023-06-04T12:17:07;4.68;;;1.17;;
34832;SDS011;55941;50.800;4.342;2023-06-04T12:19:44;6.82;;;1.20;;
34832;SDS011;55941;50.800;4.342;2023-06-04T12:22:14;7.65;;;1.42;;
34832;SDS011;55941;50.800;4.342;2023-06-04T12:24:51;9.35;;;1.65;;
34832;SDS011;55941;50.800;4.342;2023-06-04T12:27:27;6.35;;;1.30;;
34832;SDS011;55941;50.800;4.342;2023-06-04T12:29:57;5.40;;;1.20;;
34832;SDS011;55941;50.800;4.342;2023-06-04T12:32:30;2.50;;;0.82;;
34832;SDS011;55941;50.800;4.342;2023-06-04T12:35:00;2.55;;;1.10;;
34832;SDS011;55941;50.800;4.342;2023-06-04T12:37:25;5.68;;;1.40;;
34832;SDS011;55941;50.800;4.342;2023-06-04T12:39:52;6.32;;;1.30;;
34832;SDS011;55941;50.800;4.342;2023-06-04T12:42:19;4.95;;;1.20;;
34832;SDS011;55941;50.800;4.342;2023-06-04T12:44:45;11.00;;;1.40;;
34832;SDS011;55941;50.800;4.342;2023-06-04T12:47:12;3.95;;;1.20;;
34832;SDS011;55941;50.800;4.342;2023-06-04T12:49:38;8.02;;;1.33;;
34832;SDS011;55941;50.800;4.342;2023-06-04T12:52:04;5.63;;;1.10;;
34832;SDS011;55941;50.800;4.342;2023-06-04T12:54:30;2.83;;;1.13;;
34832;SDS011;55941;50.800;4.342;2023-06-04T12:56:56;4.72;;;0.95;;
34832;SDS011;55941;50.800;4.342;2023-06-04T12:59:27;4.78;;;1.23;;
34832;SDS011;55941;50.800;4.342;2023-06-04T13:01:55;2.35;;;1.40;;
34832;SDS011;55941;50.800;4.342;2023-06-04T13:04:21;3.97;;;1.05;;
34832;SDS011;55941;50.800;4.342;2023-06-04T13:06:48;4.88;;;1.17;;
34832;SDS011;55941;50.800;4.342;2023-06-04T13:09:15;3.78;;;1.45;;
34832;SDS011;55941;50.800;4.342;2023-06-04T13:11:41;10.32;;;1.30;;
34832;SDS011;55941;50.800;4.342;2023-06-04T13:14:08;4.15;;;1.50;;
34832;SDS011;55941;50.800;4.342;2023-06-04T13:16:34;5.40;;;1.33;;
34832;SDS011;55941;50.800;4.342;2023-06-04T13:19:00;11.10;;;1.58;;
34832;SDS011;55941;50.800;4.342;2023-06-04T13:21:26;6.25;;;1.85;;
34832;SDS011;55941;50.800;4.342;2023-06-04T13:23:52;7.50;;;1.10;;
34832;SDS011;55941;50.800;4.342;2023-06-04T13:26:18;4.30;;;1.20;;
34832;SDS011;55941;50.800;4.342;2023-06-04T13:28:45;3.53;;;1.15;;
34832;SDS011;55941;50.800;4.342;2023-06-04T13:31:11;5.40;;;1.15;;
34832;SDS011;55941;50.800;4.342;2023-06-04T13:33:38;8.32;;;1.35;;
34832;SDS011;55941;50.800;4.342;2023-06-04T13:36:04;10.35;;;1.20;;
34832;SDS011;55941;50.800;4.342;2023-06-04T13:38:31;5.80;;;1.35;;
34832;SDS011;55941;50.800;4.342;2023-06-04T13:40:57;10.27;;;1.67;;
34832;SDS011;55941;50.800;4.342;2023-06-04T13:43:23;3.90;;;1.38;;
34832;SDS011;55941;50.800;4.342;2023-06-04T13:45:49;2.60;;;1.10;;
34832;SDS011;55941;50.800;4.342;2023-06-04T13:48:14;10.43;;;1.20;;
34832;SDS011;55941;50.800;4.342;2023-06-04T13:50:41;5.18;;;1.23;;
34832;SDS011;55941;50.800;4.342;2023-06-04T13:53:07;5.55;;;1.20;;
34832;SDS011;55941;50.800;4.342;2023-06-04T13:55:34;4.47;;;1.23;;
34832;SDS011;55941;50.800;4.342;2023-06-04T13:58:00;10.95;;;1.30;;
34832;SDS011;55941;50.800;4.342;2023-06-04T14:00:25;4.00;;;1.50;;
34832;SDS011;55941;50.800;4.342;2023-06-04T14:02:53;8.27;;;1.65;;
34832;SDS011;55941;50.800;4.342;2023-06-04T14:05:20;7.57;;;1.48;;
34832;SDS011;55941;50.800;4.342;2023-06-04T14:07:47;8.27;;;1.30;;
34832;SDS011;55941;50.800;4.342;2023-06-04T14:10:13;4.55;;;1.30;;
34832;SDS011;55941;50.800;4.342;2023-06-04T14:12:39;8.30;;;1.40;;
34832;SDS011;55941;50.800;4.342;2023-06-04T14:15:06;1.92;;;1.13;;
34832;SDS011;55941;50.800;4.342;2023-06-04T14:17:35;7.45;;;1.20;;
34832;SDS011;55941;50.800;4.342;2023-06-04T14:20:01;9.30;;;1.23;;
34832;SDS011;55941;50.800;4.342;2023-06-04T14:22:32;3.05;;;1.23;;
34832;SDS011;55941;50.800;4.342;2023-06-04T14:25:00;11.43;;;1.27;;
34832;SDS011;55941;50.800;4.342;2023-06-04T14:27:27;5.97;;;1.13;;
34832;SDS011;55941;50.800;4.342;2023-06-04T14:29:52;7.88;;;1.30;;
34832;SDS011;55941;50.800;4.342;2023-06-04T14:32:18;2.55;;;1.25;;
34832;SDS011;55941;50.800;4.342;2023-06-04T14:34:44;3.90;;;0.98;;
34832;SDS011;55941;50.800;4.342;2023-06-04T14:37:09;3.58;;;1.20;;
34832;SDS011;55941;50.800;4.342;2023-06-04T14:39:35;4.50;;;1.17;;
34832;SDS011;55941;50.800;4.342;2023-06-04T14:42:01;5.97;;;1.25;;
34832;SDS011;55941;50.800;4.342;2023-06-04T14:44:27;15.07;;;1.25;;
34832;SDS011;55941;50.800;4.342;2023-06-04T14:46:53;4.68;;;1.85;;
34832;SDS011;55941;50.800;4.342;2023-06-04T14:49:19;5.78;;;1.13;;
34832;SDS011;55941;50.800;4.342;2023-06-04T14:51:45;5.57;;;1.27;;
34832;SDS011;55941;50.800;4.342;2023-06-04T14:54:11;3.58;;;1.23;;
34832;SDS011;55941;50.800;4.342;2023-06-04T14:56:37;3.20;;;1.20;;
34832;SDS011;55941;50.800;4.342;2023-06-04T14:59:03;4.05;;;1.35;;